Time;durP1;ratioP1;P1;durP2;ratioP2;P2;SDS_P1;SDS_P2;PMS_P1;PMS_P2;Temp;Humidity;BMP_temperature;BMP_pressure;BME280_temperature;BME280_humidity;BME280_pressure;Samples;Min_cycle;Max_cycle;Signal;HPM_P1;HPM_P2
2023/06/14 00:01:55;;;;;;;;;;;17.70;28.10;;;13.60;44.86;94918.31;4934920;29;19910;-48
2023/06/14 00:04:21;;;;;;;;;;;17.60;28.20;;;13.53;45.78;94914.44;4934287;29;19910;-45
2023/06/14 00:06:48;;;;;;;;;;;17.50;28.30;;;13.39;43.71;94911.78;4935362;29;20068;-46
2023/06/14 00:09:17;;;;;;;;;;;17.40;28.40;;;13.48;44.52;94910.00;4935164;29;19915;-48
2023/06/14 00:11:43;;;;;;;;;;;17.40;28.50;;;13.54;43.44;94908.78;4935822;29;19917;-47
2023/06/14 00:14:09;;;;;;;;;;;17.30;28.60;;;13.59;42.88;94910.56;4936753;29;19910;-46
2023/06/14 00:16:35;;;;;;;;;;;17.30;28.70;;;13.62;43.05;94913.41;4935239;29;19965;-46
2023/06/14 00:19:04;;;;;;;;;;;17.30;28.70;;;13.65;43.76;94910.16;4937776;29;19922;-52
2023/06/14 00:21:31;;;;;;;;;;;17.30;28.80;;;13.56;44.36;94906.59;4943172;28;19910;-51
2023/06/14 00:23:58;;;;;;;;;;;17.30;28.80;;;13.46;44.31;94900.66;4934936;29;20262;-45
2023/06/14 00:26:26;;;;;;;;;;;17.30;28.90;;;13.38;44.54;94904.81;4934021;29;19910;-46
2023/06/14 00:28:52;;;;;;;;;;;17.30;28.90;;;13.32;44.38;94904.16;4934997;29;20304;-46
2023/06/14 00:31:18;;;;;;;;;;;17.20;28.90;;;13.27;44.65;94893.53;4934818;29;20329;-49
2023/06/14 00:33:44;;;;;;;;;;;17.20;29.10;;;13.17;44.94;94899.06;4933987;29;19910;-47
2023/06/14 00:36:10;;;;;;;;;;;17.10;29.60;;;13.13;44.76;94890.84;4934740;29;19969;-45
2023/06/14 00:38:36;;;;;;;;;;;17.00;29.20;;;13.04;45.12;94897.19;4933927;29;19918;-47
2023/06/14 00:41:02;;;;;;;;;;;17.00;29.80;;;13.00;45.23;94890.81;4935124;29;19926;-44
2023/06/14 00:43:27;;;;;;;;;;;16.90;29.40;;;12.92;45.41;94889.66;4934622;29;19911;-45
2023/06/14 00:45:53;;;;;;;;;;;16.90;29.50;;;12.93;44.84;94884.00;4933820;29;19911;-44
2023/06/14 00:48:20;;;;;;;;;;;16.90;29.60;;;12.91;45.03;94886.19;4934797;29;20341;-47
2023/06/14 00:50:48;;;;;;;;;;;16.80;29.70;;;12.92;44.96;94886.97;4933968;29;19914;-43
2023/06/14 00:53:17;;;;;;;;;;;16.80;29.90;;;12.91;44.79;94883.50;4933374;29;19911;-45
2023/06/14 00:55:43;;;;;;;;;;;16.80;30.00;;;12.90;45.11;94886.47;4933972;29;20329;-45
2023/06/14 00:58:11;;;;;;;;;;;16.70;30.00;;;12.88;45.27;94877.94;4934411;29;19961;-43
2023/06/14 01:00:37;;;;;;;;;;;16.70;30.00;;;12.84;45.33;94879.63;4949091;29;19917;-46
2023/06/14 01:03:03;;;;;;;;;;;16.70;30.00;;;12.79;45.40;94887.75;4933698;29;19911;-44
2023/06/14 01:05:31;;;;;;;;;;;16.70;30.10;;;12.77;45.65;94882.69;4934617;29;19915;-44
2023/06/14 01:08:20;;;;;;;;;;;16.70;30.20;;;12.76;45.44;94877.66;4936463;29;20417;-44
2023/06/14 01:11:05;;;;;;;;;;;16.60;30.20;;;12.72;45.38;94883.59;4937030;29;20401;-44
2023/06/14 01:13:40;;;;;;;;;;;16.60;30.40;;;12.70;45.27;94890.31;4936945;29;19914;-44
2023/06/14 01:16:08;;;;;;;;;;;16.60;30.40;;;12.68;45.98;94882.56;4952020;28;19910;-44
2023/06/14 01:18:35;;;;;;;;;;;16.60;30.50;;;12.67;46.05;94889.00;4938220;28;19914;-44
2023/06/14 01:21:05;;;;;;;;;;;16.50;30.50;;;12.65;45.93;94887.72;4941175;28;19910;-45
2023/06/14 01:23:32;;;;;;;;;;;16.60;30.60;;;12.60;46.30;94877.94;4952850;28;19933;-44
2023/06/14 01:26:02;;;;;;;;;;;16.50;30.60;;;12.56;46.76;94889.47;4936733;29;19925;-47
2023/06/14 01:28:33;;;;;;;;;;;16.50;30.70;;;12.51;47.22;94885.03;4938206;29;20333;-45
2023/06/14 01:31:05;;;;;;;;;;;16.40;30.70;;;12.43;47.16;94888.34;4937684;29;20358;-44
2023/06/14 01:33:35;;;;;;;;;;;16.40;30.80;;;12.37;47.50;94884.97;4950640;28;20381;-43
2023/06/14 01:36:05;;;;;;;;;;;16.40;30.90;;;12.26;47.93;94886.25;4952588;28;19997;-43
2023/06/14 01:38:32;;;;;;;;;;;16.30;31.00;;;12.20;48.39;94884.72;4950721;28;20412;-45
2023/06/14 01:41:01;;;;;;;;;;;16.20;31.10;;;12.14;48.63;94883.22;4951973;28;19923;-43
2023/06/14 01:43:31;;;;;;;;;;;16.20;31.20;;;12.04;49.21;94887.63;4937394;29;19953;-45
2023/06/14 01:45:59;;;;;;;;;;;16.10;31.20;;;11.93;50.15;94886.19;4928456;29;19958;-43
2023/06/14 01:48:24;;;;;;;;;;;16.00;31.30;;;11.81;50.62;94880.47;4937386;29;19911;-44
2023/06/14 01:50:52;;;;;;;;;;;16.00;31.40;;;11.68;50.53;94881.97;4936202;29;19917;-44
2023/06/14 01:53:17;;;;;;;;;;;15.80;31.50;;;11.47;52.45;94881.47;4951621;28;19918;-45
2023/06/14 01:55:48;;;;;;;;;;;15.70;31.60;;;11.33;52.71;94878.69;4936585;29;19921;-44
2023/06/14 01:58:16;;;;;;;;;;;15.60;31.80;;;11.20;52.17;94879.41;4936761;29;19973;-44
2023/06/14 02:00:43;;;;;;;;;;;15.50;31.90;;;11.09;52.46;94886.75;4936414;29;20017;-43
2023/06/14 02:03:09;;;;;;;;;;;15.40;32.00;;;10.95;52.75;94877.81;4936309;29;19938;-44
2023/06/14 02:05:35;;;;;;;;;;;15.20;32.10;;;10.78;53.36;94886.28;4951779;28;19910;-45
2023/06/14 02:08:01;;;;;;;;;;;15.10;32.30;;;10.64;53.34;94883.47;4936251;29;19917;-45
2023/06/14 02:10:26;;;;;;;;;;;15.00;32.40;;;10.53;54.09;94884.66;4936930;29;19937;-43
2023/06/14 02:12:52;;;;;;;;;;;14.90;32.50;;;10.40;56.24;94885.28;4936685;29;19910;-44
2023/06/14 02:15:19;;;;;;;;;;;14.80;32.70;;;10.28;57.12;94888.34;4935901;29;19914;-43
2023/06/14 02:17:47;;;;;;;;;;;14.70;32.90;;;10.25;56.92;94891.53;4935898;29;19961;-44
2023/06/14 02:20:13;;;;;;;;;;;14.60;33.10;;;10.15;57.36;94891.56;4935470;29;20349;-44
2023/06/14 02:22:39;;;;;;;;;;;14.40;33.20;;;10.04;56.71;94893.53;4936616;29;19911;-43
2023/06/14 02:25:06;;;;;;;;;;;14.40;33.40;;;9.91;57.81;94889.63;4936746;28;19950;-42
2023/06/14 02:27:32;;;;;;;;;;;14.30;33.60;;;9.79;59.34;94888.41;4935664;29;19921;-46
2023/06/14 02:29:57;;;;;;;;;;;14.20;33.70;;;9.73;59.19;94888.41;4936832;29;19910;-45
2023/06/14 02:32:23;;;;;;;;;;;14.10;33.90;;;9.68;59.42;94891.13;4935350;29;19911;-43
2023/06/14 02:34:49;;;;;;;;;;;14.00;34.10;;;9.61;60.08;94887.94;4936547;28;19914;-44
2023/06/14 02:37:16;;;;;;;;;;;13.90;34.20;;;9.59;60.95;94886.63;4935439;29;19954;-46
2023/06/14 02:39:42;;;;;;;;;;;13.80;34.30;;;9.49;61.22;94893.63;4935591;29;20278;-43
2023/06/14 02:42:08;;;;;;;;;;;13.70;34.50;;;9.41;60.74;94888.88;4936031;28;19926;-44
2023/06/14 02:44:33;;;;;;;;;;;13.70;34.70;;;9.30;63.10;94889.19;4942074;28;19910;-44
2023/06/14 02:47:00;;;;;;;;;;;13.60;34.80;;;9.19;63.91;94897.19;4936068;29;20005;-43
2023/06/14 02:49:26;;;;;;;;;;;13.60;35.00;;;9.09;64.32;94894.59;4936370;29;19914;-43
2023/06/14 02:51:52;;;;;;;;;;;13.40;35.10;;;9.09;64.12;94894.59;4935196;29;19938;-44
2023/06/14 02:54:18;;;;;;;;;;;13.40;35.30;;;9.06;64.30;94896.97;4936101;29;19917;-43
2023/06/14 02:56:44;;;;;;;;;;;13.30;35.50;;;8.96;64.81;94898.63;4935225;28;19932;-42
2023/06/14 02:59:10;;;;;;;;;;;13.30;35.60;;;8.93;65.12;94901.81;4935482;29;19915;-44
2023/06/14 03:01:40;;;;;;;;;;;13.20;35.80;;;8.87;66.07;94900.25;4935707;29;19910;-43
2023/06/14 03:04:07;;;;;;;;;;;13.10;35.90;;;8.87;66.05;94907.38;4949521;28;19910;-43
2023/06/14 03:06:33;;;;;;;;;;;13.10;36.10;;;8.80;66.79;94905.03;4936047;29;19910;-43
2023/06/14 03:09:01;;;;;;;;;;;13.00;36.30;;;8.69;67.44;94900.81;4935048;29;20370;-44
2023/06/14 03:11:30;;;;;;;;;;;12.90;36.40;;;8.58;68.21;94905.31;4936028;29;19914;-44
2023/06/14 03:13:56;;;;;;;;;;;12.90;36.50;;;8.56;68.43;94902.97;4933402;29;19910;-43
2023/06/14 03:16:24;;;;;;;;;;;12.80;36.70;;;8.54;67.63;94909.59;4935592;29;19917;-45
2023/06/14 03:18:53;;;;;;;;;;;12.80;36.80;;;8.41;68.78;94912.78;4935093;29;19941;-46
2023/06/14 03:21:20;;;;;;;;;;;12.70;37.00;;;8.33;69.47;94917.53;4934939;29;20386;-43
2023/06/14 03:23:47;;;;;;;;;;;12.60;37.10;;;8.31;68.81;94917.00;4950258;28;19911;-45
2023/06/14 03:26:13;;;;;;;;;;;12.60;37.20;;;8.20;69.74;94917.28;4934653;29;20445;-44
2023/06/14 03:28:43;;;;;;;;;;;12.50;37.40;;;8.14;70.39;94923.63;4935614;29;20008;-44
2023/06/14 03:31:09;;;;;;;;;;;12.50;37.50;;;8.05;71.46;94926.84;4935314;29;19973;-44
2023/06/14 03:33:35;;;;;;;;;;;12.40;37.70;;;8.01;71.57;94925.75;4934087;29;19914;-43
2023/06/14 03:36:02;;;;;;;;;;;12.40;37.90;;;7.92;72.33;94934.50;4935594;29;20006;-45
2023/06/14 03:38:29;;;;;;;;;;;12.30;38.00;;;7.86;72.52;94936.34;4934424;29;20345;-45
2023/06/14 03:40:55;;;;;;;;;;;12.20;38.10;;;7.78;73.19;94937.66;4935115;29;20344;-44
2023/06/14 03:43:20;;;;;;;;;;;12.20;38.20;;;7.77;72.88;94938.72;4935350;29;19950;-42
2023/06/14 03:45:46;;;;;;;;;;;12.10;38.40;;;7.75;72.95;94935.53;4934701;29;19911;-45
2023/06/14 03:48:12;;;;;;;;;;;12.10;38.50;;;7.68;73.33;94942.94;4935273;29;19915;-46
2023/06/14 03:50:38;;;;;;;;;;;12.00;38.60;;;7.61;73.95;94945.81;4934198;29;19911;-43
2023/06/14 03:53:05;;;;;;;;;;;12.00;38.80;;;7.57;74.75;94944.75;4934973;29;20373;-44
2023/06/14 03:55:31;;;;;;;;;;;12.00;39.00;;;7.55;75.31;94948.72;4935193;29;20377;-43
2023/06/14 03:57:57;;;;;;;;;;;12.00;39.20;;;7.51;74.87;94951.09;4934296;29;20403;-42
2023/06/14 04:00:25;;;;;;;;;;;11.90;39.30;;;7.48;76.05;94951.59;4934197;29;26730;-45
2023/06/14 04:02:52;;;;;;;;;;;11.90;39.40;;;7.47;76.69;94960.63;4934091;28;20348;-44
2023/06/14 04:05:18;;;;;;;;;;;11.90;39.50;;;7.41;77.72;94959.81;4935038;28;20005;-43
2023/06/14 04:07:45;;;;;;;;;;;11.90;39.60;;;7.39;78.12;94963.75;4934909;28;20021;-44
2023/06/14 04:10:16;;;;;;;;;;;11.90;39.70;;;7.39;78.39;94964.56;4933695;29;19910;-44
2023/06/14 04:12:42;;;;;;;;;;;11.80;39.80;;;7.40;79.50;94970.69;4934805;29;19914;-44
2023/06/14 04:15:09;;;;;;;;;;;11.80;40.00;;;7.56;79.41;94967.03;4931976;29;19948;-44
2023/06/14 04:17:37;;;;;;;;;;;11.90;40.10;;;7.88;78.06;94966.84;4934798;28;20010;-45
2023/06/14 04:20:05;;;;;;;;;;;11.90;40.20;;;8.17;76.24;94971.66;4931687;29;22924;-43
2023/06/14 04:22:33;;;;;;;;;;;12.10;40.50;;;8.46;74.96;94971.16;4932720;29;19977;-45
2023/06/14 04:24:59;;;;;;;;;;;12.20;40.50;;;8.73;74.15;94970.91;4934883;29;19914;-45
2023/06/14 04:27:27;;;;;;;;;;;12.30;40.60;;;8.99;73.44;94972.47;4948190;29;19958;-45
2023/06/14 04:29:59;;;;;;;;;;;12.50;40.70;;;9.24;71.99;94976.91;4934704;29;19911;-43
2023/06/14 04:32:26;;;;;;;;;;;12.70;40.70;;;9.52;71.99;94976.53;4933399;28;20400;-44
2023/06/14 04:34:59;;;;;;;;;;;13.00;40.70;;;9.76;70.90;94980.16;4934708;29;19929;-46
2023/06/14 04:37:27;;;;;;;;;;;13.20;40.70;;;10.01;70.51;94987.22;4934654;29;19922;-43
2023/06/14 04:39:55;;;;;;;;;;;13.40;41.30;;;10.29;69.29;94988.41;4933389;29;19956;-45
2023/06/14 04:42:24;;;;;;;;;;;13.70;40.60;;;10.58;68.30;94998.31;4936910;29;19922;-44
2023/06/14 04:44:55;;;;;;;;;;;13.90;40.50;;;10.80;66.54;94987.22;4936403;29;19921;-44
2023/06/14 04:47:21;;;;;;;;;;;14.10;40.40;;;10.99;66.42;94992.63;4938555;29;20057;-44
2023/06/14 04:49:47;;;;;;;;;;;14.40;40.30;;;11.22;64.54;94985.72;4938108;29;19917;-46
2023/06/14 04:52:13;;;;;;;;;;;14.70;40.20;;;11.51;64.69;94993.72;4937680;29;19910;-44
2023/06/14 04:54:43;;;;;;;;;;;14.90;40.10;;;11.75;63.17;94997.16;4938243;29;19914;-49
2023/06/14 04:57:13;;;;;;;;;;;15.20;40.00;;;12.09;62.65;95000.75;4951696;28;20001;-45
2023/06/14 04:59:40;;;;;;;;;;;15.50;39.90;;;12.45;61.75;94998.38;4938181;29;20005;-45
2023/06/14 05:02:06;;;;;;;;;;;15.80;39.70;;;12.79;60.67;95002.66;4939583;28;19918;-45
2023/06/14 05:04:33;;;;;;;;;;;16.10;39.60;;;13.07;58.41;95007.00;4941818;28;20013;-45
2023/06/14 05:07:00;;;;;;;;;;;16.50;39.40;;;13.35;57.68;95005.19;4938198;29;19910;-46
2023/06/14 05:09:26;;;;;;;;;;;16.80;39.20;;;13.61;57.09;95007.41;4937139;29;19910;-45
2023/06/14 05:11:52;;;;;;;;;;;17.10;39.00;;;13.77;56.45;95008.66;4938077;29;19911;-48
2023/06/14 05:14:18;;;;;;;;;;;17.40;38.70;;;13.97;53.14;95012.81;4937720;28;19911;-46
2023/06/14 05:16:44;;;;;;;;;;;17.80;39.10;;;14.15;54.57;95011.09;4938023;29;19910;-45
2023/06/14 05:19:10;;;;;;;;;;;18.00;38.20;;;14.32;54.92;95010.47;4937925;29;20338;-45
2023/06/14 05:21:37;;;;;;;;;;;18.30;38.00;;;14.55;54.14;95014.03;4942084;28;19917;-45
2023/06/14 05:24:03;;;;;;;;;;;18.60;37.80;;;14.80;51.95;95018.00;4940542;28;20396;-48
2023/06/14 05:26:29;;;;;;;;;;;18.90;37.50;;;15.04;51.43;95012.31;4937096;29;19957;-47
2023/06/14 05:28:56;;;;;;;;;;;19.20;37.30;;;15.34;50.59;95018.00;4937643;29;20030;-46
2023/06/14 05:31:25;;;;;;;;;;;19.50;37.10;;;15.57;49.51;95019.53;4937672;28;20021;-45
2023/06/14 05:33:52;;;;;;;;;;;19.80;36.80;;;15.74;49.96;95021.53;4936577;29;19922;-48
2023/06/14 05:36:19;;;;;;;;;;;20.10;36.60;;;16.01;49.32;95019.72;4937655;28;19911;-45
2023/06/14 05:38:45;;;;;;;;;;;20.40;36.30;;;16.31;47.99;95021.50;4936357;29;19914;-43
2023/06/14 05:41:11;;;;;;;;;;;20.70;36.10;;;16.59;47.40;95029.28;4937286;29;20487;-44
2023/06/14 05:43:37;;;;;;;;;;;21.00;35.80;;;16.85;47.15;95023.94;4943563;28;20447;-45
2023/06/14 05:46:03;;;;;;;;;;;21.40;35.50;;;16.97;46.14;95024.09;4936305;29;19911;-44
2023/06/14 05:48:30;;;;;;;;;;;21.70;35.20;;;17.23;45.41;95031.31;4937385;29;19910;-45
2023/06/14 05:50:56;;;;;;;;;;;21.90;34.90;;;17.28;43.32;95031.16;4931343;28;19963;-45
2023/06/14 05:53:22;;;;;;;;;;;22.20;35.20;;;17.38;44.75;95046.97;4933918;29;19910;-46
2023/06/14 05:55:53;;;;;;;;;;;22.40;34.20;;;17.41;42.59;95034.78;4936402;28;19918;-48
2023/06/14 05:58:19;;;;;;;;;;;22.60;34.00;;;17.47;42.02;95033.50;4935245;29;19914;-46
2023/06/14 06:00:45;;;;;;;;;;;22.80;33.60;;;17.50;41.70;95040.94;4937049;29;19936;-45
2023/06/14 06:03:12;;;;;;;;;;;22.90;33.40;;;17.63;41.81;95039.16;4935848;29;19914;-43
2023/06/14 06:05:39;;;;;;;;;;;23.10;33.00;;;17.69;41.99;95038.66;4937024;29;19934;-44
2023/06/14 06:08:05;;;;;;;;;;;23.20;32.80;;;17.96;41.85;95032.06;4936081;28;20361;-43
2023/06/14 06:10:31;;;;;;;;;;;23.40;32.60;;;17.96;41.20;95042.84;4936882;29;19942;-46
2023/06/14 06:12:57;;;;;;;;;;;23.50;32.40;;;18.22;41.27;95036.53;4940550;28;19956;-50
2023/06/14 06:15:22;;;;;;;;;;;23.70;32.30;;;18.55;41.45;95043.94;4935164;28;20273;-46
2023/06/14 06:17:48;;;;;;;;;;;23.90;32.00;;;18.82;40.66;95048.06;4936504;29;19918;-44
2023/06/14 06:20:14;;;;;;;;;;;24.10;31.90;;;19.03;40.49;95050.75;4935914;29;19915;-47
2023/06/14 06:22:39;;;;;;;;;;;24.30;31.70;;;19.27;40.05;95053.53;4937824;28;20408;-51
2023/06/14 06:25:06;;;;;;;;;;;24.50;31.50;;;19.33;38.59;95054.09;4944797;28;20328;-49
2023/06/14 06:27:33;;;;;;;;;;;24.70;31.30;;;19.37;38.08;95055.03;4935761;29;19940;-46
2023/06/14 06:29:58;;;;;;;;;;;24.90;31.00;;;19.33;38.63;95052.19;4935895;29;19910;-44
2023/06/14 06:32:24;;;;;;;;;;;25.00;31.00;;;19.45;38.61;95054.13;4933730;29;19916;-45
2023/06/14 06:34:51;;;;;;;;;;;25.20;30.50;;;19.48;39.09;95060.78;4939962;28;19961;-44
2023/06/14 06:37:17;;;;;;;;;;;25.30;30.30;;;19.81;38.06;95058.09;4936394;29;19967;-49
2023/06/14 06:39:43;;;;;;;;;;;25.50;30.20;;;19.94;37.71;95054.28;4935295;28;20358;-50
2023/06/14 06:42:09;;;;;;;;;;;25.60;30.00;;;20.07;37.50;95068.59;4936526;29;19922;-55
2023/06/14 06:44:35;;;;;;;;;;;25.80;30.00;;;20.04;37.78;95070.03;4934330;29;19910;-55
2023/06/14 06:47:00;;;;;;;;;;;25.90;29.90;;;20.05;36.96;95066.19;4937694;28;20251;-49
2023/06/14 06:49:27;;;;;;;;;;;26.10;29.70;;;20.38;36.86;95072.66;4935556;29;19915;-48
2023/06/14 06:52:04;;;;;;;;;;;26.30;29.60;;;20.74;35.97;95067.19;4933713;29;19911;-50
2023/06/14 06:54:31;;;;;;;;;;;26.50;29.50;;;20.77;36.14;95071.91;4936406;29;19997;-52
2023/06/14 06:56:57;;;;;;;;;;;26.70;29.30;;;20.95;35.99;95077.09;4935366;28;19911;-55
2023/06/14 06:59:23;;;;;;;;;;;26.80;29.10;;;21.21;34.96;95077.44;4936116;29;19969;-52
2023/06/14 07:01:48;;;;;;;;;;;27.00;28.90;;;21.20;34.62;95075.09;4935519;29;19921;-51
2023/06/14 07:04:15;;;;;;;;;;;27.10;28.70;;;21.11;34.70;95072.50;4934887;29;19910;-48
2023/06/14 07:06:43;;;;;;;;;;;27.30;28.60;;;20.85;35.22;95081.06;4935988;29;20005;-49
2023/06/14 07:09:12;;;;;;;;;;;27.40;28.40;;;20.53;35.93;95072.78;4935086;29;20408;-51
2023/06/14 07:11:45;;;;;;;;;;;27.40;28.20;;;21.00;36.09;95072.22;4935995;29;20391;-52
2023/06/14 07:14:11;;;;;;;;;;;27.60;28.20;;;21.31;35.47;95078.06;4934475;29;19914;-50
2023/06/14 07:16:37;;;;;;;;;;;27.60;28.00;;;21.49;35.02;95077.47;4935841;29;19965;-49
2023/06/14 07:19:04;;;;;;;;;;;27.70;27.90;;;21.63;36.15;95084.41;4935621;29;19961;-50
2023/06/14 07:21:30;;;;;;;;;;;27.80;27.90;;;21.69;33.74;95081.09;4934777;29;19969;-49
2023/06/14 07:23:56;;;;;;;;;;;28.00;27.80;;;21.48;33.45;95091.38;4935623;29;19914;-50
2023/06/14 07:26:22;;;;;;;;;;;28.20;27.80;;;21.85;33.48;95089.25;4934639;29;19910;-50
2023/06/14 07:28:49;;;;;;;;;;;28.30;27.70;;;22.04;34.09;95090.50;4935582;29;19910;-49
2023/06/14 07:31:19;;;;;;;;;;;28.50;27.60;;;22.19;33.42;95089.75;4950200;28;19914;-50
2023/06/14 07:33:45;;;;;;;;;;;28.60;27.40;;;22.42;32.63;95084.47;4934396;29;19964;-50
2023/06/14 07:36:11;;;;;;;;;;;28.80;27.30;;;22.59;32.16;95075.13;4935680;29;19997;-51
2023/06/14 07:38:37;;;;;;;;;;;28.90;27.10;;;22.91;31.71;95084.00;4934509;29;20362;-51
2023/06/14 07:41:03;;;;;;;;;;;29.10;27.00;;;23.04;31.25;95093.63;4935274;29;19978;-49
2023/06/14 07:43:29;;;;;;;;;;;29.20;27.30;;;22.82;31.68;95086.91;4935279;29;20005;-51
2023/06/14 07:45:56;;;;;;;;;;;29.30;26.60;;;22.71;31.99;95083.16;4934272;29;20401;-55
2023/06/14 07:48:22;;;;;;;;;;;29.40;26.50;;;22.94;32.77;95085.22;4935626;29;19910;-55
2023/06/14 07:50:48;;;;;;;;;;;29.50;26.40;;;23.06;32.77;95085.91;4934611;29;19918;-53
2023/06/14 07:53:14;;;;;;;;;;;29.60;26.80;;;23.34;31.36;95087.63;4935287;29;20419;-52
2023/06/14 07:55:42;;;;;;;;;;;29.70;26.20;;;23.47;31.27;95089.06;4934118;29;19911;-53
2023/06/14 07:58:08;;;;;;;;;;;29.80;26.10;;;23.69;30.44;95090.28;4934274;29;20336;-55
2023/06/14 08:00:33;;;;;;;;;;;30.00;26.00;;;23.76;30.38;95084.19;4935844;29;20009;-49
2023/06/14 08:02:59;;;;;;;;;;;30.10;25.90;;;23.81;30.86;95081.16;4934296;29;20030;-49
2023/06/14 08:05:29;;;;;;;;;;;30.20;25.70;;;23.91;29.96;95077.84;4937132;28;19910;-50
2023/06/14 08:07:55;;;;;;;;;;;30.30;25.50;;;23.94;29.66;95084.47;4934217;29;20056;-49
2023/06/14 08:10:22;;;;;;;;;;;30.40;25.40;;;24.01;30.11;95077.25;4934855;29;20358;-51
2023/06/14 08:12:49;;;;;;;;;;;30.40;25.20;;;24.24;29.14;95084.63;4934983;29;19910;-54
2023/06/14 08:15:16;;;;;;;;;;;30.60;25.20;;;24.35;29.62;95085.59;4934406;28;19910;-56
2023/06/14 08:17:45;;;;;;;;;;;30.70;25.10;;;23.90;29.70;95083.66;4934340;29;20008;-51
2023/06/14 08:20:13;;;;;;;;;;;30.70;24.90;;;24.19;29.25;95090.34;4931508;29;19934;-50
2023/06/14 08:22:42;;;;;;;;;;;30.90;24.90;;;24.40;28.88;95092.63;4931055;29;19918;-55
2023/06/14 08:25:08;;;;;;;;;;;30.90;24.60;;;24.50;28.71;95085.81;4932899;29;20262;-54
2023/06/14 08:27:35;;;;;;;;;;;31.00;24.60;;;24.82;28.05;95097.97;4931964;29;19910;-52
2023/06/14 08:30:02;;;;;;;;;;;31.10;24.50;;;25.13;27.43;95101.53;4933017;28;20396;-51
2023/06/14 08:32:28;;;;;;;;;;;31.30;24.60;;;25.17;27.35;95098.88;4930520;29;19911;-54
2023/06/14 08:34:54;;;;;;;;;;;31.50;24.40;;;25.21;26.91;95099.69;4933265;28;20344;-53
2023/06/14 08:37:20;;;;;;;;;;;31.60;24.20;;;25.04;26.92;95098.25;4932420;29;20000;-52
2023/06/14 08:39:46;;;;;;;;;;;31.70;24.00;;;25.28;27.37;95099.78;4931436;29;19910;-50
2023/06/14 08:42:15;;;;;;;;;;;31.80;24.00;;;24.69;27.22;95104.78;4932202;29;20011;-53
2023/06/14 08:44:41;;;;;;;;;;;31.90;23.90;;;23.97;28.33;95103.63;4942856;28;19918;-49
2023/06/14 08:47:08;;;;;;;;;;;31.90;23.70;;;24.68;27.96;95109.44;4932458;29;20270;-50
2023/06/14 08:49:40;;;;;;;;;;;31.90;23.70;;;24.88;27.50;95114.78;4931018;28;20013;-50
2023/06/14 08:52:10;;;;;;;;;;;32.00;23.60;;;25.11;27.13;95106.53;4939623;28;19950;-53
2023/06/14 08:54:43;;;;;;;;;;;32.10;23.60;;;25.43;26.99;95100.75;4944451;28;19910;-50
2023/06/14 08:57:15;;;;;;;;;;;32.20;23.50;;;25.78;26.89;95108.53;4931892;28;20402;-55
2023/06/14 08:59:52;;;;;;;;;;;32.40;23.40;;;26.07;26.98;95099.50;4933073;28;20009;-55
2023/06/14 09:02:19;;;;;;;;;;;32.50;23.30;;;25.91;26.74;95109.06;4933024;29;19910;-54
2023/06/14 09:04:45;;;;;;;;;;;32.60;23.30;;;26.20;25.63;95107.41;4934375;29;19911;-54
2023/06/14 09:07:12;;;;;;;;;;;32.80;23.20;;;26.52;25.68;95104.97;4934391;29;20021;-48
2023/06/14 09:09:41;;;;;;;;;;;33.00;23.60;;;26.88;25.11;95106.00;4933315;29;20305;-54
2023/06/14 09:12:12;;;;;;;;;;;33.10;23.00;;;26.84;25.10;95105.19;4934339;29;19918;-55
2023/06/14 09:14:39;;;;;;;;;;;33.30;22.80;;;27.24;24.79;95097.25;4933419;29;19910;-53
2023/06/14 09:17:06;;;;;;;;;;;33.40;22.80;;;27.11;24.38;95102.25;4934336;29;19910;-53
2023/06/14 09:19:33;;;;;;;;;;;33.60;22.50;;;27.22;24.03;95103.09;4934599;28;19918;-55
2023/06/14 09:22:00;;;;;;;;;;;33.70;22.40;;;26.79;24.41;95107.50;4943964;29;19917;-53
2023/06/14 09:24:26;;;;;;;;;;;33.70;22.30;;;26.75;24.46;95097.34;4934308;29;19961;-54
2023/06/14 09:26:53;;;;;;;;;;;33.80;22.20;;;26.92;24.22;95098.63;4933727;29;19946;-51
2023/06/14 09:29:18;;;;;;;;;;;33.80;22.00;;;26.93;23.83;95089.25;4937960;29;19910;-55
2023/06/14 09:31:48;;;;;;;;;;;33.90;21.80;;;26.88;24.06;95092.34;4937487;29;19910;-49
2023/06/14 09:34:16;;;;;;;;;;;33.90;21.70;;;27.04;23.85;95096.72;4936953;29;20325;-51
2023/06/14 09:36:42;;;;;;;;;;;33.90;21.60;;;27.16;23.69;95102.66;4952128;28;19921;-55
2023/06/14 09:39:09;;;;;;;;;;;34.00;21.50;;;27.19;23.58;95093.72;4936718;29;19965;-55
2023/06/14 09:41:40;;;;;;;;;;;33.90;21.20;;;27.50;23.72;95096.19;4937366;29;20013;-51
2023/06/14 09:44:11;;;;;;;;;;;34.00;21.30;;;27.23;24.10;95088.25;4937858;28;20404;-54
2023/06/14 09:46:38;;;;;;;;;;;34.00;21.10;;;27.37;24.11;95110.19;4941315;28;20274;-50
2023/06/14 09:49:05;;;;;;;;;;;34.00;21.00;;;27.29;23.62;95099.63;4937681;29;19910;-49
2023/06/14 09:51:32;;;;;;;;;;;34.00;20.90;;;26.42;24.75;95102.91;4950999;28;19921;-51
2023/06/14 09:54:04;;;;;;;;;;;34.00;20.90;;;26.87;24.40;95104.44;4937624;29;19910;-50
2023/06/14 09:56:40;;;;;;;;;;;34.00;21.40;;;27.39;23.75;95107.88;4936357;28;20358;-52
2023/06/14 09:59:10;;;;;;;;;;;34.00;21.00;;;28.16;23.44;95113.19;4937526;29;19914;-48
2023/06/14 10:01:42;;;;;;;;;;;34.20;21.60;;;28.24;23.44;95105.78;4951848;28;19945;-49
2023/06/14 10:04:10;;;;;;;;;;;34.40;21.20;;;28.31;22.78;95103.03;4950853;28;19945;-50
2023/06/14 10:06:41;;;;;;;;;;;34.60;21.10;;;28.35;22.49;95106.56;4937339;29;20432;-51
2023/06/14 10:09:10;;;;;;;;;;;34.70;20.90;;;28.50;22.13;95104.63;4950530;28;19910;-49
2023/06/14 10:11:38;;;;;;;;;;;34.80;20.80;;;28.56;22.88;95105.81;4936791;28;20001;-51
2023/06/14 10:14:08;;;;;;;;;;;35.00;20.80;;;27.33;23.48;95108.63;4935839;29;20377;-49
2023/06/14 10:17:02;;;;;;;;;;;35.00;20.70;;;27.65;22.38;95095.06;4936758;29;20443;-52
2023/06/14 10:19:55;;;;;;;;;;;35.10;20.70;;;27.88;22.46;95103.75;4936677;29;19929;-47
2023/06/14 10:22:44;;;;;;;;;;;35.10;20.50;;;27.83;23.41;95092.41;4950852;28;20175;-49
2023/06/14 10:25:27;;;;;;;;;;;35.20;20.40;;;26.12;23.74;95097.59;4951408;28;19917;-49
2023/06/14 10:27:53;;;;;;;;;;;35.20;20.20;;;26.42;24.09;95098.25;4935727;29;20370;-51
2023/06/14 10:30:25;;;;;;;;;;;35.10;20.20;;;27.28;23.39;95081.66;4936542;29;19910;-49
2023/06/14 10:33:07;;;;;;;;;;;35.00;20.20;;;27.88;22.64;95090.06;4935672;29;19918;-51
2023/06/14 10:35:34;;;;;;;;;;;35.10;20.30;;;27.77;22.61;95088.47;4936525;29;19911;-50
2023/06/14 10:38:27;;;;;;;;;;;35.20;20.20;;;27.94;22.52;95090.47;4935588;28;19914;-52
2023/06/14 10:40:56;;;;;;;;;;;35.20;20.10;;;27.85;23.14;95099.06;4924014;29;19919;-51
2023/06/14 10:43:24;;;;;;;;;;;35.30;20.00;;;27.93;22.73;95096.34;4936284;28;19969;-52
2023/06/14 10:46:16;;;;;;;;;;;35.40;19.90;;;27.92;21.60;95084.59;4949820;28;19910;-50
2023/06/14 10:48:44;;;;;;;;;;;35.40;19.70;;;28.12;22.15;95090.50;4936211;29;20005;-53
2023/06/14 10:51:20;;;;;;;;;;;35.40;19.70;;;27.28;22.75;95078.91;4935310;29;19914;-55
2023/06/14 10:53:49;;;;;;;;;;;35.50;19.70;;;27.24;22.32;95081.63;4924054;29;19911;-51
2023/06/14 10:56:29;;;;;;;;;;;35.40;19.60;;;27.75;22.70;95096.28;4935233;28;19957;-54
2023/06/14 10:58:57;;;;;;;;;;;35.40;19.70;;;28.28;21.54;95090.91;4936081;29;19937;-54
2023/06/14 11:02:12;;;;;;;;;;;35.50;19.70;;;28.84;21.72;95083.09;4935757;29;19910;-55
2023/06/14 11:05:05;;;;;;;;;;;35.70;19.80;;;28.67;22.23;95079.16;4925759;29;19910;-55
2023/06/14 11:08:02;;;;;;;;;;;36.00;19.70;;;28.71;21.93;95082.72;4934705;29;19911;-50
2023/06/14 11:10:40;;;;;;;;;;;36.10;19.70;;;29.22;21.94;95089.66;4941628;28;19910;-52
2023/06/14 11:13:09;;;;;;;;;;;36.20;19.60;;;29.50;21.41;95079.78;4935909;29;19917;-55
2023/06/14 11:15:37;;;;;;;;;;;36.40;19.60;;;28.78;23.32;95077.22;4934646;29;20009;-51
2023/06/14 11:18:06;;;;;;;;;;;36.50;19.40;;;28.63;22.38;95085.84;4932549;29;19918;-51
2023/06/14 11:20:35;;;;;;;;;;;36.60;19.40;;;28.14;22.05;95088.16;4936702;28;19921;-50
2023/06/14 11:23:02;;;;;;;;;;;36.60;19.30;;;28.70;21.56;95089.34;4951215;28;19910;-54
2023/06/14 11:25:28;;;;;;;;;;;36.60;19.30;;;28.92;21.78;95087.34;4935054;29;19911;-55